Time;durP1;ratioP1;P1;durP2;ratioP2;P2;SDS_P1;SDS_P2;PMS_P1;PMS_P2;Temp;Humidity;BMP_temperature;BMP_pressure;BME280_temperature;BME280_humidity;BME280_pressure;Samples;Min_cycle;Max_cycle;Signal;HPM_P1;HPM_P2
2023/03/19 00:00:19;;;;;;;3.00;1.58;;;12.60;93.20;;;;;;5116853;28;20047;-73
2023/03/19 00:02:49;;;;;;;2.28;1.48;;;12.50;93.50;;;;;;5115822;28;20030;-74
2023/03/19 00:05:16;;;;;;;2.80;1.55;;;12.60;93.70;;;;;;5116801;28;20027;-74
2023/03/19 00:07:42;;;;;;;1.67;1.35;;;12.50;93.60;;;;;;5116721;28;20024;-74
2023/03/19 00:10:08;;;;;;;2.53;1.35;;;12.50;93.70;;;;;;5116589;28;20081;-74
2023/03/19 00:12:34;;;;;;;1.45;1.20;;;12.50;93.60;;;;;;5116627;28;20052;-74
2023/03/19 00:15:00;;;;;;;2.65;1.50;;;12.50;93.70;;;;;;5116585;28;20027;-74
2023/03/19 00:17:25;;;;;;;1.10;1.00;;;12.50;93.90;;;;;;5116555;28;20016;-74
2023/03/19 00:19:51;;;;;;;2.05;1.30;;;12.40;94.10;;;;;;5116500;28;20024;-74
2023/03/19 00:22:17;;;;;;;1.70;1.20;;;12.40;94.00;;;;;;5116380;28;20055;-74
2023/03/19 00:24:43;;;;;;;1.92;1.20;;;12.50;94.00;;;;;;5116544;28;20477;-74
2023/03/19 00:27:09;;;;;;;1.50;1.27;;;12.40;94.30;;;;;;5116349;28;20084;-74
2023/03/19 00:29:36;;;;;;;2.75;1.63;;;12.40;94.50;;;;;;5116298;28;20024;-74
2023/03/19 00:32:02;;;;;;;1.83;1.27;;;12.40;94.40;;;;;;5116251;28;20084;-74
2023/03/19 00:34:27;;;;;;;3.00;1.38;;;12.40;94.50;;;;;;5116193;28;20027;-74
2023/03/19 00:36:54;;;;;;;2.83;1.33;;;12.40;94.50;;;;;;5116160;28;20032;-73
2023/03/19 00:39:20;;;;;;;2.90;1.17;;;12.40;94.70;;;;;;5116132;28;20139;-74
2023/03/19 00:41:49;;;;;;;2.03;0.98;;;12.40;94.90;;;;;;5115992;28;20055;-74
2023/03/19 00:44:17;;;;;;;2.25;1.40;;;12.30;95.00;;;;;;5116029;28;20027;-74
2023/03/19 00:46:42;;;;;;;2.50;1.00;;;12.20;95.00;;;;;;5116000;28;20016;-74
2023/03/19 00:49:08;;;;;;;1.83;1.30;;;12.20;94.90;;;;;;5115936;28;20028;-74
2023/03/19 00:51:34;;;;;;;1.55;1.13;;;12.20;94.90;;;;;;5115912;28;20036;-74
2023/03/19 00:53:59;;;;;;;2.25;1.50;;;12.20;94.90;;;;;;5114518;28;20044;-74
2023/03/19 00:56:25;;;;;;;2.17;1.55;;;12.30;94.90;;;;;;5115818;28;20024;-74
2023/03/19 00:58:50;;;;;;;2.88;1.80;;;12.30;94.90;;;;;;5115718;28;20471;-74
2023/03/19 01:01:17;;;;;;;2.67;1.70;;;12.30;94.90;;;;;;5115616;28;20036;-74
2023/03/19 01:03:44;;;;;;;2.60;1.70;;;12.30;95.00;;;;;;5115660;28;20027;-74
2023/03/19 01:06:11;;;;;;;2.58;1.80;;;12.20;95.10;;;;;;5115606;28;20024;-74
2023/03/19 01:08:36;;;;;;;3.00;1.80;;;12.20;95.50;;;;;;5115504;28;20028;-74
2023/03/19 01:11:13;;;;;;;3.53;1.98;;;12.20;95.50;;;;;;5115500;28;20035;-74
2023/03/19 01:13:39;;;;;;;3.97;1.90;;;12.20;95.70;;;;;;5114443;28;20107;-74
2023/03/19 01:16:05;;;;;;;3.03;2.00;;;12.10;95.70;;;;;;5115401;28;20032;-74
2023/03/19 01:18:31;;;;;;;2.92;2.10;;;12.10;96.00;;;;;;5115358;28;20486;-74
2023/03/19 01:20:58;;;;;;;4.65;2.30;;;12.00;95.90;;;;;;5115203;28;20039;-74
2023/03/19 01:23:23;;;;;;;3.38;2.22;;;12.10;95.90;;;;;;5115443;28;20028;-74
2023/03/19 01:25:50;;;;;;;3.63;2.25;;;12.10;96.10;;;;;;5115228;28;20039;-74
2023/03/19 01:28:16;;;;;;;5.40;2.35;;;12.00;96.20;;;;;;5115181;28;20021;-74
2023/03/19 01:30:41;;;;;;;4.40;2.50;;;12.00;96.30;;;;;;5115098;28;20024;-73
2023/03/19 01:33:07;;;;;;;4.82;2.80;;;12.00;96.20;;;;;;5115190;28;20079;-74
2023/03/19 01:35:33;;;;;;;5.15;2.53;;;12.00;96.10;;;;;;5115185;28;20032;-74
2023/03/19 01:37:58;;;;;;;4.22;2.58;;;12.00;96.20;;;;;;5115071;28;20028;-74
2023/03/19 01:40:24;;;;;;;4.60;2.97;;;12.00;96.20;;;;;;5114171;28;20028;-74
2023/03/19 01:42:55;;;;;;;4.72;2.92;;;12.00;96.00;;;;;;5114954;28;20024;-73
2023/03/19 01:45:38;;;;;;;3.03;2.38;;;12.00;95.70;;;;;;5114879;28;20056;-74
2023/03/19 01:48:04;;;;;;;4.95;2.75;;;12.00;95.50;;;;;;5114770;28;20024;-74
2023/03/19 01:50:41;;;;;;;4.15;2.70;;;12.00;95.40;;;;;;5114672;28;20072;-74
2023/03/19 01:53:08;;;;;;;3.55;2.58;;;12.00;95.40;;;;;;5113596;28;20057;-74
2023/03/19 01:55:34;;;;;;;3.95;2.40;;;12.00;95.30;;;;;;5114661;28;20376;-74
2023/03/19 01:58:00;;;;;;;6.00;3.35;;;11.90;95.30;;;;;;5114600;28;20016;-74
2023/03/19 02:00:28;;;;;;;4.28;2.92;;;11.90;95.50;;;;;;5114561;28;20127;-74
2023/03/19 02:02:58;;;;;;;4.43;2.83;;;11.90;95.40;;;;;;5114453;28;20024;-73
2023/03/19 02:05:25;;;;;;;7.63;3.20;;;11.90;95.60;;;;;;5114258;28;20020;-74
2023/03/19 02:07:58;;;;;;;3.53;2.88;;;11.90;95.60;;;;;;5113313;28;20092;-73
2023/03/19 02:10:25;;;;;;;5.22;3.30;;;11.90;96.10;;;;;;5114390;28;20077;-73
2023/03/19 02:12:50;;;;;;;6.13;3.42;;;11.80;96.10;;;;;;5114333;28;20054;-74
2023/03/19 02:15:16;;;;;;;6.25;3.40;;;11.90;96.10;;;;;;5114292;28;20048;-74
2023/03/19 02:17:42;;;;;;;6.88;3.88;;;11.90;96.10;;;;;;5114252;28;20024;-73
2023/03/19 02:20:17;;;;;;;6.32;3.72;;;11.90;96.20;;;;;;5114164;28;20036;-73
2023/03/19 02:22:59;;;;;;;6.00;3.50;;;11.90;96.20;;;;;;5114148;28;20028;-74
2023/03/19 02:25:40;;;;;;;6.43;3.55;;;11.90;96.20;;;;;;5114315;28;20017;-74
2023/03/19 02:28:08;;;;;;;6.25;3.40;;;11.90;96.10;;;;;;5113073;28;20063;-73
2023/03/19 02:30:34;;;;;;;8.00;3.72;;;11.90;96.10;;;;;;5114029;28;20024;-74
2023/03/19 02:33:00;;;;;;;7.47;3.67;;;11.90;96.00;;;;;;5113980;28;20024;-74
2023/03/19 02:35:30;;;;;;;6.07;3.63;;;11.90;96.10;;;;;;5113071;28;20027;-74
2023/03/19 02:37:55;;;;;;;6.72;3.70;;;11.90;96.20;;;;;;5113914;28;20383;-74
2023/03/19 02:40:29;;;;;;;6.68;3.63;;;11.90;96.50;;;;;;5113042;28;20024;-74
2023/03/19 02:42:55;;;;;;;7.28;3.97;;;11.90;96.20;;;;;;5113818;28;20024;-73
2023/03/19 02:45:22;;;;;;;7.30;3.53;;;11.90;96.30;;;;;;5113780;28;20064;-74
2023/03/19 02:47:48;;;;;;;7.05;3.67;;;11.90;96.40;;;;;;5113760;28;20031;-74
2023/03/19 02:50:13;;;;;;;6.80;3.92;;;11.90;96.50;;;;;;5113731;28;20024;-74
2023/03/19 02:52:39;;;;;;;7.40;3.97;;;11.80;96.60;;;;;;5113696;28;20028;-74
2023/03/19 02:55:06;;;;;;;6.95;3.95;;;11.90;96.60;;;;;;5112582;28;20058;-74
2023/03/19 02:57:32;;;;;;;5.40;3.45;;;11.90;96.80;;;;;;5113633;28;20498;-74
2023/03/19 02:59:57;;;;;;;5.43;3.65;;;11.90;96.90;;;;;;5113605;28;20036;-75
2023/03/19 03:02:23;;;;;;;6.38;3.80;;;11.80;97.00;;;;;;5113620;28;20043;-74
2023/03/19 03:04:49;;;;;;;8.32;4.18;;;11.90;97.00;;;;;;5113553;28;20026;-74
2023/03/19 03:07:15;;;;;;;6.97;3.92;;;11.80;97.30;;;;;;5113531;28;20078;-74
2023/03/19 03:09:40;;;;;;;5.72;3.63;;;11.80;97.30;;;;;;5113447;28;20045;-74
2023/03/19 03:12:07;;;;;;;7.63;4.00;;;11.80;97.40;;;;;;5113466;28;20039;-74
2023/03/19 03:14:33;;;;;;;8.40;4.43;;;11.70;97.30;;;;;;5113462;28;20028;-74
2023/03/19 03:16:59;;;;;;;6.55;3.70;;;11.80;97.20;;;;;;5115316;28;20024;-74
2023/03/19 03:19:25;;;;;;;6.78;3.70;;;11.80;97.30;;;;;;5116924;28;20039;-74
2023/03/19 03:21:50;;;;;;;8.05;3.95;;;11.80;97.60;;;;;;5117531;28;20024;-73
2023/03/19 03:24:16;;;;;;;5.03;3.72;;;11.80;97.20;;;;;;5117719;28;20082;-74
2023/03/19 03:26:43;;;;;;;6.82;3.80;;;11.90;97.00;;;;;;5117652;28;20032;-74
2023/03/19 03:29:08;;;;;;;6.25;3.40;;;11.90;97.10;;;;;;5117618;28;20044;-74
2023/03/19 03:31:34;;;;;;;5.97;4.10;;;11.80;96.90;;;;;;5117428;28;20032;-74
2023/03/19 03:34:00;;;;;;;6.35;3.78;;;11.90;97.30;;;;;;5117359;28;20032;-73
2023/03/19 03:36:26;;;;;;;6.03;3.55;;;11.90;97.30;;;;;;5117456;28;20035;-74
2023/03/19 03:38:52;;;;;;;6.35;3.92;;;11.80;97.40;;;;;;5117445;28;20032;-74
2023/03/19 03:41:18;;;;;;;5.78;3.75;;;11.90;97.20;;;;;;5117176;28;20031;-74
2023/03/19 03:43:44;;;;;;;5.22;3.28;;;11.90;97.30;;;;;;5117177;28;20012;-74
2023/03/19 03:46:10;;;;;;;6.30;3.28;;;11.90;97.10;;;;;;5117166;28;20027;-74
2023/03/19 03:48:36;;;;;;;6.00;3.58;;;11.90;97.00;;;;;;5117126;28;20028;-74
2023/03/19 03:51:02;;;;;;;6.03;3.63;;;11.90;97.20;;;;;;5117224;28;20028;-74
2023/03/19 03:53:27;;;;;;;4.57;3.78;;;11.90;97.20;;;;;;5115918;28;20059;-74
2023/03/19 03:55:53;;;;;;;7.47;3.90;;;11.90;97.20;;;;;;5117037;28;20107;-74
2023/03/19 03:58:19;;;;;;;5.55;3.55;;;11.90;97.10;;;;;;5116084;28;20020;-74
2023/03/19 04:00:45;;;;;;;7.40;3.60;;;11.90;97.20;;;;;;5116819;28;20031;-74
2023/03/19 04:03:12;;;;;;;5.50;3.55;;;11.90;97.20;;;;;;5116859;28;20083;-74
2023/03/19 04:05:38;;;;;;;8.13;3.78;;;11.90;97.10;;;;;;5116759;28;20016;-74
2023/03/19 04:08:04;;;;;;;5.78;3.72;;;11.90;97.00;;;;;;5116674;28;20027;-74
2023/03/19 04:10:31;;;;;;;8.18;3.80;;;11.90;97.00;;;;;;5115717;28;20024;-74
2023/03/19 04:12:56;;;;;;;5.22;3.60;;;11.90;97.10;;;;;;5116679;28;20021;-74
2023/03/19 04:15:22;;;;;;;6.18;3.58;;;11.90;97.00;;;;;;5116621;28;20036;-74
2023/03/19 04:17:48;;;;;;;5.43;3.42;;;11.90;97.00;;;;;;5116716;28;20028;-74
2023/03/19 04:20:16;;;;;;;8.13;3.88;;;11.90;97.30;;;;;;5116540;28;20376;-74
2023/03/19 04:22:42;;;;;;;5.53;3.47;;;11.80;97.30;;;;;;5115399;28;20028;-74
2023/03/19 04:25:08;;;;;;;6.57;3.92;;;11.80;97.40;;;;;;5116445;28;20024;-74
2023/03/19 04:27:34;;;;;;;6.55;4.03;;;11.80;97.30;;;;;;5116275;28;20079;-74
2023/03/19 04:30:00;;;;;;;5.75;3.78;;;11.80;97.30;;;;;;5116342;28;20079;-74
2023/03/19 04:32:25;;;;;;;5.22;3.58;;;11.70;97.10;;;;;;5116318;28;20047;-74
2023/03/19 04:34:51;;;;;;;6.93;3.90;;;11.70;97.00;;;;;;5116220;28;20103;-74
2023/03/19 04:37:18;;;;;;;7.03;3.88;;;11.60;96.80;;;;;;5116208;28;20071;-74
2023/03/19 04:39:44;;;;;;;7.35;4.32;;;11.60;96.60;;;;;;5116155;28;20024;-74
2023/03/19 04:42:10;;;;;;;9.27;4.03;;;11.50;96.70;;;;;;5116023;28;20033;-74
2023/03/19 04:44:36;;;;;;;8.02;3.75;;;11.50;96.70;;;;;;5116055;28;20139;-74
2023/03/19 04:47:02;;;;;;;5.90;3.63;;;11.40;96.70;;;;;;5115062;28;20027;-74
2023/03/19 04:49:29;;;;;;;6.80;4.03;;;11.40;96.70;;;;;;5115926;28;20087;-74
2023/03/19 04:51:56;;;;;;;5.85;4.15;;;11.30;97.20;;;;;;5115918;28;20044;-75
2023/03/19 04:54:24;;;;;;;5.85;3.55;;;11.30;97.50;;;;;;5115702;28;20052;-74
2023/03/19 04:56:50;;;;;;;7.05;4.13;;;11.20;97.50;;;;;;5114921;28;20020;-74
2023/03/19 04:59:16;;;;;;;7.82;3.83;;;11.20;97.30;;;;;;5115761;28;20032;-74
2023/03/19 05:01:42;;;;;;;5.00;3.58;;;11.20;97.10;;;;;;5114770;28;20030;-74
2023/03/19 05:04:08;;;;;;;6.20;3.97;;;11.20;96.90;;;;;;5114724;28;20074;-74
2023/03/19 05:06:35;;;;;;;7.47;4.18;;;11.20;97.10;;;;;;5115623;28;20023;-74
2023/03/19 05:09:01;;;;;;;6.15;4.15;;;11.10;97.20;;;;;;5115625;28;20027;-74
2023/03/19 05:11:27;;;;;;;8.05;4.72;;;11.10;97.20;;;;;;5115537;28;20062;-74
2023/03/19 05:13:52;;;;;;;6.60;4.05;;;11.20;97.20;;;;;;5115511;28;20033;-74
2023/03/19 05:16:19;;;;;;;5.57;3.75;;;11.20;97.10;;;;;;5115471;28;20047;-74
2023/03/19 05:18:44;;;;;;;6.07;3.72;;;11.10;97.00;;;;;;5115432;28;20125;-74
2023/03/19 05:21:11;;;;;;;6.47;3.97;;;11.00;97.50;;;;;;5114222;28;20024;-74
2023/03/19 05:23:37;;;;;;;7.32;3.95;;;11.00;97.40;;;;;;5115353;28;20028;-74
2023/03/19 05:26:03;;;;;;;6.68;3.95;;;10.90;97.10;;;;;;5114189;28;20021;-73
2023/03/19 05:28:29;;;;;;;7.10;4.07;;;10.90;96.80;;;;;;5114161;28;20486;-74
2023/03/19 05:30:55;;;;;;;6.22;4.03;;;10.90;96.70;;;;;;5115290;28;20034;-74
2023/03/19 05:33:21;;;;;;;7.72;4.35;;;10.80;96.70;;;;;;5114113;28;20088;-74
2023/03/19 05:35:47;;;;;;;8.60;4.32;;;10.80;96.80;;;;;;5115047;28;20025;-74
2023/03/19 05:38:13;;;;;;;6.95;3.72;;;10.80;97.10;;;;;;5115019;28;20031;-74
2023/03/19 05:40:41;;;;;;;6.75;4.30;;;10.80;97.20;;;;;;5113411;28;20024;-73
2023/03/19 05:43:08;;;;;;;7.15;4.38;;;10.80;97.10;;;;;;5114797;28;20016;-73
2023/03/19 05:45:34;;;;;;;7.57;4.38;;;10.80;97.20;;;;;;5113851;28;20049;-73
2023/03/19 05:48:01;;;;;;;8.60;4.78;;;10.80;97.30;;;;;;5114787;28;20045;-73
2023/03/19 05:50:27;;;;;;;7.65;4.15;;;10.80;96.80;;;;;;5114814;28;20039;-73
2023/03/19 05:52:53;;;;;;;6.43;4.32;;;10.80;96.70;;;;;;5114526;28;20032;-74
2023/03/19 05:55:19;;;;;;;10.10;4.65;;;10.70;96.70;;;;;;5114736;28;20043;-73
2023/03/19 05:57:44;;;;;;;9.23;4.57;;;10.70;96.80;;;;;;5114626;28;20028;-73
2023/03/19 06:00:11;;;;;;;8.82;4.80;;;10.60;96.70;;;;;;5114589;28;20035;-73
2023/03/19 06:02:37;;;;;;;8.73;4.80;;;10.60;97.00;;;;;;5114427;28;20023;-73
2023/03/19 06:05:03;;;;;;;11.13;5.05;;;10.50;97.30;;;;;;5114643;28;20103;-73
2023/03/19 06:07:29;;;;;;;8.80;4.38;;;10.60;97.30;;;;;;5114394;28;20020;-73
2023/03/19 06:09:54;;;;;;;7.50;4.85;;;10.60;97.40;;;;;;5113397;28;20040;-73
2023/03/19 06:12:20;;;;;;;9.52;5.40;;;10.50;97.90;;;;;;5114374;28;20515;-73
2023/03/19 06:14:46;;;;;;;8.27;4.70;;;10.50;98.00;;;;;;5114309;28;20020;-73
2023/03/19 06:17:12;;;;;;;7.72;4.88;;;10.50;98.00;;;;;;5113464;28;20026;-73
2023/03/19 06:19:38;;;;;;;8.48;4.75;;;10.50;98.40;;;;;;5114230;28;20059;-73
2023/03/19 06:22:04;;;;;;;9.15;5.28;;;10.50;98.40;;;;;;5113196;28;20035;-73
2023/03/19 06:24:29;;;;;;;9.88;5.50;;;10.50;98.30;;;;;;5114133;28;20032;-73
2023/03/19 06:26:55;;;;;;;7.55;4.68;;;10.50;98.40;;;;;;5114258;28;20092;-73
2023/03/19 06:29:21;;;;;;;8.57;4.70;;;10.40;98.80;;;;;;5114079;28;20020;-73
2023/03/19 06:31:47;;;;;;;9.77;5.13;;;10.40;99.10;;;;;;5114026;28;20020;-73
2023/03/19 06:34:12;;;;;;;8.88;4.85;;;10.50;98.80;;;;;;5113965;28;20514;-73
2023/03/19 06:36:38;;;;;;;8.82;5.10;;;10.50;98.60;;;;;;5113008;28;20056;-73
2023/03/19 06:39:04;;;;;;;9.88;5.07;;;10.40;98.70;;;;;;5113915;28;20092;-73
2023/03/19 06:41:30;;;;;;;10.68;5.35;;;10.50;98.80;;;;;;5113836;28;20028;-74
2023/03/19 06:43:56;;;;;;;10.45;5.38;;;10.50;98.60;;;;;;5113870;28;20071;-73
2023/03/19 06:46:22;;;;;;;10.13;5.53;;;10.50;98.60;;;;;;5113842;28;20078;-73
2023/03/19 06:48:47;;;;;;;9.80;5.45;;;10.60;98.60;;;;;;5113775;28;20088;-73
2023/03/19 06:51:13;;;;;;;10.43;5.45;;;10.60;98.50;;;;;;5112872;28;20028;-73
2023/03/19 06:53:38;;;;;;;9.43;5.25;;;10.70;98.60;;;;;;5112702;28;20048;-74
2023/03/19 06:56:04;;;;;;;9.15;5.05;;;10.70;98.80;;;;;;5113667;28;20035;-74
2023/03/19 06:58:30;;;;;;;13.68;6.32;;;10.70;98.90;;;;;;5113619;28;20031;-74
2023/03/19 07:00:56;;;;;;;11.23;5.95;;;10.70;99.20;;;;;;5113643;28;20032;-74
2023/03/19 07:03:22;;;;;;;10.23;5.90;;;10.80;99.60;;;;;;5113571;28;20020;-74
2023/03/19 07:05:51;;;;;;;13.48;7.38;;;10.80;99.70;;;;;;5113684;28;20048;-74
2023/03/19 07:08:17;;;;;;;11.73;6.47;;;10.80;99.50;;;;;;5113480;28;20059;-73
2023/03/19 07:10:42;;;;;;;15.07;6.97;;;10.80;99.40;;;;;;5113469;28;20021;-74
2023/03/19 07:13:09;;;;;;;11.77;6.88;;;10.80;99.40;;;;;;5113505;28;20083;-74
2023/03/19 07:15:35;;;;;;;12.98;7.35;;;10.80;99.60;;;;;;5112561;28;20028;-74
2023/03/19 07:18:01;;;;;;;11.68;7.40;;;10.80;99.60;;;;;;5112485;28;20049;-74
2023/03/19 07:20:27;;;;;;;12.38;7.53;;;10.80;99.70;;;;;;5113433;28;20065;-74
2023/03/19 07:22:53;;;;;;;14.57;7.53;;;10.80;99.60;;;;;;5113341;28;20033;-74
2023/03/19 07:25:19;;;;;;;13.10;7.68;;;10.90;99.60;;;;;;5113409;28;20032;-74
2023/03/19 07:27:45;;;;;;;12.95;7.57;;;10.90;99.60;;;;;;5112403;28;20045;-74
2023/03/19 07:30:13;;;;;;;14.88;8.02;;;10.90;99.60;;;;;;5113328;28;20024;-75
2023/03/19 07:32:39;;;;;;;17.38;8.35;;;10.90;99.60;;;;;;5113399;28;20042;-73
2023/03/19 07:35:06;;;;;;;13.35;7.63;;;11.00;99.60;;;;;;5113301;28;20017;-74
2023/03/19 07:37:32;;;;;;;15.00;8.23;;;11.00;99.60;;;;;;5112283;28;20039;-74
2023/03/19 07:39:58;;;;;;;14.00;8.02;;;11.00;99.80;;;;;;5113204;28;20035;-74
2023/03/19 07:42:24;;;;;;;15.57;8.80;;;11.00;99.90;;;;;;5113154;28;20059;-74
2023/03/19 07:44:50;;;;;;;15.82;8.82;;;11.10;99.90;;;;;;5113194;28;20020;-74
2023/03/19 07:47:15;;;;;;;14.73;8.20;;;11.20;99.90;;;;;;5113214;28;20173;-74
2023/03/19 07:49:41;;;;;;;15.00;8.30;;;11.30;99.90;;;;;;5113151;28;20024;-74
2023/03/19 07:52:07;;;;;;;17.35;8.88;;;11.30;99.90;;;;;;5113232;28;20020;-74
2023/03/19 07:54:33;;;;;;;17.05;8.00;;;11.40;99.90;;;;;;5112868;28;20526;-74
2023/03/19 07:56:59;;;;;;;14.02;7.35;;;11.40;99.90;;;;;;5112163;28;20032;-75
2023/03/19 07:59:24;;;;;;;14.43;7.38;;;11.60;99.90;;;;;;5113061;28;20024;-74
2023/03/19 08:01:50;;;;;;;16.48;7.97;;;11.60;99.90;;;;;;5111973;28;20039;-74
2023/03/19 08:04:16;;;;;;;11.43;6.70;;;11.80;99.90;;;;;;5116724;28;20048;-73
2023/03/19 08:06:42;;;;;;;13.88;7.65;;;11.90;99.90;;;;;;5116808;28;20073;-73
2023/03/19 08:09:08;;;;;;;13.10;6.47;;;11.90;99.90;;;;;;5116675;28;20020;-74
2023/03/19 08:11:34;;;;;;;9.23;5.53;;;12.00;99.70;;;;;;5116729;28;20028;-74
2023/03/19 08:14:00;;;;;;;13.82;6.22;;;12.20;99.60;;;;;;5116618;28;20050;-74
2023/03/19 08:16:26;;;;;;;9.98;5.57;;;12.20;98.90;;;;;;5115767;28;20032;-74
2023/03/19 08:18:51;;;;;;;10.75;5.55;;;12.20;97.90;;;;;;5116558;28;20027;-74
2023/03/19 08:21:17;;;;;;;9.98;5.38;;;12.30;98.10;;;;;;5115584;28;20038;-73
2023/03/19 08:23:43;;;;;;;9.05;5.20;;;12.30;97.60;;;;;;5116477;28;20516;-73
2023/03/19 08:26:08;;;;;;;12.73;5.50;;;12.30;97.70;;;;;;5116426;28;20032;-74
2023/03/19 08:28:34;;;;;;;11.18;4.90;;;12.40;97.60;;;;;;5116377;28;20044;-75
2023/03/19 08:31:10;;;;;;;12.82;5.60;;;12.50;96.90;;;;;;5116392;28;20024;-75
2023/03/19 08:33:37;;;;;;;11.40;5.07;;;12.50;97.20;;;;;;5116482;28;20023;-75
2023/03/19 08:36:08;;;;;;;14.13;5.80;;;12.50;97.10;;;;;;5115274;28;20017;-75
2023/03/19 08:38:34;;;;;;;11.52;4.65;;;12.60;96.70;;;;;;5116166;28;20042;-75
2023/03/19 08:41:02;;;;;;;10.18;4.60;;;12.70;96.30;;;;;;5116085;28;20028;-75
2023/03/19 08:43:30;;;;;;;11.02;5.07;;;12.70;96.10;;;;;;5116208;28;20026;-75
2023/03/19 08:45:55;;;;;;;10.45;4.93;;;12.80;96.00;;;;;;5116013;28;20088;-74
2023/03/19 08:48:21;;;;;;;11.05;5.15;;;13.00;95.60;;;;;;5115950;28;20024;-75
2023/03/19 08:51:00;;;;;;;10.73;4.90;;;13.00;95.60;;;;;;5115012;28;20035;-74
2023/03/19 08:53:26;;;;;;;11.27;4.78;;;13.10;95.20;;;;;;5115677;28;20052;-75
2023/03/19 08:55:53;;;;;;;12.75;5.13;;;13.20;94.40;;;;;;5115853;28;20028;-75
2023/03/19 08:58:20;;;;;;;9.13;4.35;;;13.30;94.00;;;;;;5115841;28;20059;-75
2023/03/19 09:00:46;;;;;;;11.18;4.40;;;13.20;93.60;;;;;;5115758;28;20063;-75
2023/03/19 09:03:12;;;;;;;8.77;4.07;;;13.20;93.20;;;;;;5115659;28;20024;-75
2023/03/19 09:05:38;;;;;;;11.95;4.68;;;13.10;93.40;;;;;;5115661;28;20028;-74
2023/03/19 09:08:03;;;;;;;7.80;4.28;;;13.20;93.60;;;;;;5115582;28;20039;-75
2023/03/19 09:10:29;;;;;;;10.40;4.90;;;13.30;93.90;;;;;;5115588;28;20016;-75
2023/03/19 09:12:55;;;;;;;12.98;4.80;;;13.40;93.40;;;;;;5115565;28;20092;-75
2023/03/19 09:15:20;;;;;;;11.60;5.00;;;13.30;93.90;;;;;;5113505;28;20475;-74
2023/03/19 09:17:46;;;;;;;12.13;4.88;;;13.40;93.90;;;;;;5115444;28;20032;-75
2023/03/19 09:20:11;;;;;;;10.23;4.65;;;13.40;93.30;;;;;;5115402;28;20043;-75
2023/03/19 09:22:37;;;;;;;8.13;4.93;;;13.40;93.30;;;;;;5115270;28;20028;-75
2023/03/19 09:25:03;;;;;;;9.20;4.88;;;13.50;94.40;;;;;;5114407;28;20046;-75
2023/03/19 09:27:29;;;;;;;12.65;5.43;;;13.60;93.60;;;;;;5114268;28;20110;-75
2023/03/19 09:29:54;;;;;;;10.63;4.70;;;13.70;93.50;;;;;;5115327;28;20024;-75
2023/03/19 09:32:20;;;;;;;10.32;5.45;;;13.70;93.00;;;;;;5115129;28;20039;-74
2023/03/19 09:34:46;;;;;;;10.93;4.95;;;13.80;93.40;;;;;;5114141;28;20055;-75
2023/03/19 09:37:12;;;;;;;10.40;5.25;;;13.80;92.60;;;;;;5115046;28;20028;-75
2023/03/19 09:39:38;;;;;;;11.65;5.20;;;13.90;93.10;;;;;;5115029;28;20044;-75
2023/03/19 09:42:06;;;;;;;13.35;5.97;;;13.90;93.10;;;;;;5113889;28;20035;-75
2023/03/19 09:44:38;;;;;;;10.70;5.68;;;14.00;92.80;;;;;;5113807;28;20031;-75
2023/03/19 09:47:28;;;;;;;12.73;5.40;;;14.10;92.40;;;;;;5114929;28;20080;-75
2023/03/19 09:50:09;;;;;;;11.45;3.92;;;14.10;91.50;;;;;;5114814;28;20020;-75
2023/03/19 09:52:48;;;;;;;9.60;3.75;;;14.10;90.90;;;;;;5114832;28;20055;-75
2023/03/19 09:55:23;;;;;;;8.18;3.33;;;14.10;89.40;;;;;;5114565;28;20051;-75
2023/03/19 09:57:50;;;;;;;11.32;4.38;;;14.10;90.00;;;;;;5114628;28;20032;-75
2023/03/19 10:00:19;;;;;;;10.65;4.35;;;14.30;90.30;;;;;;5113765;28;20020;-75
2023/03/19 10:02:45;;;;;;;9.25;4.30;;;14.30;90.20;;;;;;5114492;28;20028;-75
2023/03/19 10:05:29;;;;;;;9.60;4.75;;;14.40;90.60;;;;;;5114491;28;20080;-75
2023/03/19 10:08:26;;;;;;;13.00;4.90;;;14.50;90.30;;;;;;5114603;28;20029;-75
2023/03/19 10:11:36;;;;;;;9.52;4.10;;;14.40;90.00;;;;;;5114474;28;20027;-75
2023/03/19 10:14:31;;;;;;;10.40;3.38;;;14.30;88.70;;;;;;5058647;28;20028;-75
2023/03/19 10:17:01;;;;;;;9.77;4.10;;;14.20;88.70;;;;;;5114375;28;20028;-75
2023/03/19 10:19:40;;;;;;;12.27;4.15;;;14.20;89.90;;;;;;5114263;28;20017;-75
2023/03/19 10:22:11;;;;;;;8.75;4.20;;;14.20;89.90;;;;;;5114185;28;20016;-75
2023/03/19 10:24:40;;;;;;;13.55;5.15;;;14.40;89.90;;;;;;5114230;28;20024;-75
2023/03/19 10:27:13;;;;;;;8.68;4.40;;;14.50;90.20;;;;;;5113949;28;20020;-74
2023/03/19 10:29:42;;;;;;;9.32;4.47;;;14.70;88.80;;;;;;5114238;28;20024;-75
2023/03/19 10:32:27;;;;;;;9.63;4.60;;;14.70;89.40;;;;;;5114019;28;20047;-75
2023/03/19 10:34:53;;;;;;;11.80;5.05;;;14.90;88.10;;;;;;5114038;28;20028;-75
2023/03/19 10:37:20;;;;;;;10.40;4.50;;;14.90;87.50;;;;;;5113932;28;20036;-75
2023/03/19 10:39:47;;;;;;;10.55;4.30;;;14.90;87.00;;;;;;5112961;28;20028;-75
2023/03/19 10:42:40;;;;;;;12.20;5.00;;;14.90;86.00;;;;;;5113801;28;20024;-75
2023/03/19 10:45:26;;;;;;;9.77;4.68;;;14.90;88.10;;;;;;5113921;28;20016;-75
2023/03/19 10:47:54;;;;;;;10.75;4.93;;;14.90;88.70;;;;;;5112826;28;20023;-75
2023/03/19 10:50:27;;;;;;;9.90;4.75;;;15.00;88.30;;;;;;5113739;28;20024;-75
2023/03/19 10:53:12;;;;;;;8.77;3.85;;;15.10;89.20;;;;;;5113732;28;20032;-75
2023/03/19 10:55:46;;;;;;;11.55;5.38;;;15.10;84.30;;;;;;5113769;28;20062;-75
2023/03/19 10:58:21;;;;;;;9.05;4.50;;;15.10;85.90;;;;;;5112707;28;20020;-75
2023/03/19 11:00:54;;;;;;;8.05;3.55;;;15.10;83.80;;;;;;5113614;28;20035;-75
2023/03/19 11:03:50;;;;;;;7.57;3.53;;;15.00;82.70;;;;;;5113665;28;20028;-75
2023/03/19 11:06:19;;;;;;;8.85;4.13;;;15.00;83.30;;;;;;5112490;28;20048;-75
2023/03/19 11:08:54;;;;;;;9.18;3.95;;;15.00;82.80;;;;;;5112416;28;20039;-74
2023/03/19 11:11:33;;;;;;;9.70;3.85;;;15.10;84.20;;;;;;5113521;28;20020;-74
2023/03/19 11:14:13;;;;;;;8.80;4.22;;;15.30;83.60;;;;;;5113514;28;20049;-75
2023/03/19 11:17:25;;;;;;;7.75;4.50;;;15.40;83.70;;;;;;5113595;28;20024;-75
2023/03/19 11:19:56;;;;;;;11.70;4.67;;;15.40;81.20;;;;;;5076909;28;20037;-75
2023/03/19 11:22:32;;;;;;;8.00;4.85;;;15.40;83.50;;;;;;5113489;28;20030;-75
2023/03/19 11:25:18;;;;;;;7.28;4.25;;;15.50;83.90;;;;;;5113520;28;20071;-74
2023/03/19 11:28:07;;;;;;;11.82;4.70;;;15.70;84.20;;;;;;5113556;28;20047;-75
2023/03/19 11:30:52;;;;;;;7.25;4.10;;;15.80;81.20;;;;;;5113408;28;20098;-75
2023/03/19 11:33:22;;;;;;;8.40;4.20;;;15.80;82.90;;;;;;5112293;28;20066;-75
2023/03/19 11:36:23;;;;;;;5.72;3.65;;;15.90;82.40;;;;;;5113312;28;20020;-75
2023/03/19 11:39:04;;;;;;;10.93;4.13;;;16.00;82.30;;;;;;5084997;28;20048;-75
2023/03/19 11:41:39;;;;;;;8.73;3.65;;;16.00;82.30;;;;;;5117400;28;20028;-75
2023/03/19 11:44:28;;;;;;;9.15;3.80;;;16.00;82.20;;;;;;5117308;28;20024;-75
2023/03/19 11:47:00;;;;;;;7.72;3.60;;;16.10;81.30;;;;;;5116318;28;20012;-75
2023/03/19 11:49:32;;;;;;;;;;;16.00;80.60;;;;;;5117765;28;20027;-75
2023/03/19 11:52:11;;;;;;;11.03;4.40;;;16.00;81.70;;;;;;5117316;28;19904;-75
2023/03/19 11:55:11;;;;;;;8.40;4.10;;;15.90;82.30;;;;;;5115891;28;20048;-75
2023/03/19 11:57:51;;;;;;;8.50;3.85;;;15.90;81.60;;;;;;5116057;28;20032;-75
2023/03/19 12:00:35;;;;;;;9.68;3.88;;;15.90;81.90;;;;;;5117022;28;20093;-75
2023/03/19 12:03:15;;;;;;;10.13;4.25;;;15.80;82.00;;;;;;5115871;28;20052;-75
2023/03/19 12:05:54;;;;;;;9.27;4.03;;;15.70;82.10;;;;;;5116884;28;20027;-75
2023/03/19 12:08:35;;;;;;;8.68;3.95;;;15.70;82.00;;;;;;5116885;28;20020;-75
2023/03/19 12:11:15;;;;;;;11.40;4.40;;;15.60;81.70;;;;;;5116761;28;20107;-75
2023/03/19 12:14:05;;;;;;;9.52;4.30;;;15.60;82.30;;;;;;5115708;28;20039;-75
2023/03/19 12:16:49;;;;;;;13.30;4.88;;;15.50;82.50;;;;;;5104411;28;20058;-75
2023/03/19 12:19:27;;;;;;;9.82;4.18;;;15.50;82.70;;;;;;5116797;28;20024;-75
2023/03/19 12:22:27;;;;;;;9.07;4.38;;;15.40;82.60;;;;;;5116535;28;20028;-75
2023/03/19 12:25:04;;;;;;;8.55;4.43;;;15.50;82.40;;;;;;5116509;28;20024;-75
2023/03/19 12:27:53;;;;;;;8.50;4.75;;;15.50;83.00;;;;;;5116481;28;20016;-75
2023/03/19 12:30:38;;;;;;;8.35;4.10;;;15.40;81.40;;;;;;5116403;28;20028;-75
2023/03/19 12:33:45;;;;;;;7.13;3.75;;;15.40;81.80;;;;;;5116385;28;20028;-75
2023/03/19 12:36:24;;;;;;;12.05;5.07;;;15.40;82.20;;;;;;5116303;28;20020;-75
2023/03/19 12:39:04;;;;;;;11.23;4.70;;;15.50;83.10;;;;;;5115448;28;20043;-75
2023/03/19 12:41:31;;;;;;;11.38;4.85;;;15.50;83.30;;;;;;5116115;28;20032;-75
2023/03/19 12:44:16;;;;;;;10.60;4.40;;;15.60;83.50;;;;;;5116105;28;20016;-75
2023/03/19 12:46:52;;;;;;;10.25;4.68;;;15.70;83.20;;;;;;5116096;28;20031;-75
2023/03/19 12:49:35;;;;;;;9.55;4.45;;;15.90;83.40;;;;;;5114801;28;20026;-75
2023/03/19 12:52:15;;;;;;;;;;;16.10;82.40;;;;;;5116414;28;20020;-74
2023/03/19 12:54:48;;;;;;;6.68;4.00;;;16.20;82.00;;;;;;5114724;28;19923;-76
2023/03/19 12:57:32;;;;;;;;;;;16.30;80.40;;;;;;5116345;28;20028;-75